Sunflower Gold — JD2460 — position and weather

sailwx.info

Track history (hours):
 
Tides and Currents Weather Stations Pressure Air Temp Water Temp Dewpoint Dewpoint Depression Visibility Wind Speed Wind Dir Waves Ship Positions

Sunflower Gold

Last reported at 2016-Jul-30 12:15 UTC. Time now 2016-Jul-30 18:46 UTC.
Position N 34°36' E 134°53'.

Length 166 m; draft 5.8 m.

Type: Passenger vessel. MMSI: 431000331.

Date/timePositionNaut miles runAvg speedWind from/ knotsBaromVisibWave heightAir tempDewpointWater temp
2016-Jul-30 12:15N 34°36' E 134°53'1419.8
2016-Jul-30 11:33N 34°36' E 135°09'9 8.7
2016-Jul-30 10:33N 34°42' E 135°17'0 0.0
2016-Jul-30 09:29N 34°42' E 135°17'0 0.0
2016-Jul-30 08:11N 34°42' E 135°17'0 0.0
2016-Jul-30 07:05N 34°42' E 135°17'0 0.0
2016-Jul-30 06:29N 34°42' E 135°17'0 0.0
2016-Jul-30 05:29N 34°42' E 135°17'0 0.0
2016-Jul-30 04:29N 34°42' E 135°17'0 0.0
2016-Jul-30 03:29N 34°42' E 135°17'0 0.0
2016-Jul-30 02:11N 34°42' E 135°17'0 0.0
2016-Jul-30 01:29N 34°42' E 135°17'0 0.0
2016-Jul-30 00:29N 34°42' E 135°17'0 0.0
2016-Jul-29 23:29N 34°42' E 135°17'1 1.6
2016-Jul-29 22:34N 34°41' E 135°18'1514.8
2016-Jul-29 21:33N 34°37' E 135°01'7 0.2
2016-Jul-28 11:22N 34°35' E 134°52'1619.2
2016-Jul-28 10:33N 34°37' E 135°11'7 6.8
2016-Jul-28 09:30N 34°42' E 135°17'0 0.0
2016-Jul-28 08:18N 34°42' E 135°17'0 0.0
2016-Jul-28 07:30N 34°42' E 135°17'0 0.0
2016-Jul-28 06:24N 34°42' E 135°17'0 0.0
2016-Jul-28 05:30N 34°42' E 135°17'0 0.0
2016-Jul-28 04:18N 34°42' E 135°17'0 0.0
2016-Jul-28 03:30N 34°42' E 135°17'0 0.0
2016-Jul-28 02:30N 34°42' E 135°17'0 0.0
2016-Jul-28 01:30N 34°42' E 135°17'0 0.0
2016-Jul-28 00:30N 34°42' E 135°17'0 0.0
2016-Jul-27 23:30N 34°42' E 135°17'0 0.0
2016-Jul-27 22:30N 34°42' E 135°17'0 0.0
2016-Jul-27 21:33N 34°42' E 135°17'1312.8
2016-Jul-27 20:33N 34°35' E 135°04'8 0.3
2016-Jul-26 11:26N 34°36' E 134°54'1517.1
2016-Jul-26 10:33N 34°36' E 135°12'7 6.5
2016-Jul-26 09:30N 34°42' E 135°17'0 0.0
2016-Jul-26 08:30N 34°42' E 135°17'0 0.0
2016-Jul-26 07:24N 34°42' E 135°17'0 0.0
2016-Jul-26 06:30N 34°42' E 135°17'0 0.0
2016-Jul-26 05:30N 34°42' E 135°17'0 0.0
2016-Jul-26 04:30N 34°42' E 135°17'0 0.0
2016-Jul-26 03:30N 34°42' E 135°17'0 0.0
2016-Jul-26 02:30N 34°42' E 135°17'0 0.0
2016-Jul-26 01:30N 34°42' E 135°17'0 0.0
2016-Jul-26 00:30N 34°42' E 135°17'0 0.0
2016-Jul-25 23:30N 34°42' E 135°17'0 0.0
2016-Jul-25 22:24N 34°42' E 135°17'0 0.0
2016-Jul-25 21:32N 34°42' E 135°17'1111.2
2016-Jul-25 20:33N 34°35' E 135°07'14 0.4
2016-Jul-24 11:29N 34°34' E 134°49'1819.2
2016-Jul-24 10:33N 34°36' E 135°11'7 7.3
2016-Jul-24 09:33N 34°42' E 135°17'0 0.0
2016-Jul-24 08:33N 34°42' E 135°17'0 0.0
2016-Jul-24 07:27N 34°42' E 135°17'0 0.0
2016-Jul-24 06:33N 34°42' E 135°17'0 0.0
2016-Jul-24 05:33N 34°42' E 135°17'0 0.0
2016-Jul-24 03:33N 34°42' E 135°17'0 0.0
2016-Jul-24 02:33N 34°42' E 135°17'0 0.0
2016-Jul-24 01:33N 34°42' E 135°17'0 0.0
2016-Jul-24 00:33N 34°42' E 135°17'0 0.0
2016-Jul-23 23:33N 34°42' E 135°17'2 1.9
2016-Jul-23 22:33N 34°40' E 135°18'1414.0
2016-Jul-23 21:33N 34°36' E 135°02'5 0.1
2016-Jul-22 11:33N 34°36' E 135°08'9 9.4
2016-Jul-22 10:33N 34°42' E 135°17'0 0.0
2016-Jul-22 09:25N 34°42' E 135°17'0 0.0
2016-Jul-22 08:31N 34°42' E 135°17'0 0.0
2016-Jul-22 07:31N 34°42' E 135°17'0 0.0
2016-Jul-22 04:31N 34°42' E 135°17'0 0.0
2016-Jul-22 03:31N 34°42' E 135°17'0 0.0
2016-Jul-22 02:31N 34°42' E 135°17'0 0.0
2016-Jul-22 01:31N 34°42' E 135°17'0 0.0
2016-Jul-22 00:25N 34°42' E 135°17'0 0.0
2016-Jul-21 23:31N 34°42' E 135°17'0 0.0
2016-Jul-21 22:31N 34°42' E 135°17'0 0.0
2016-Jul-21 21:33N 34°42' E 135°17'1111.4
2016-Jul-21 20:33N 34°35' E 135°06'  
Track history (hours):
 
Tides and Currents Weather Stations Pressure Air Temp Water Temp Dewpoint Dewpoint Depression Visibility Wind Speed Wind Dir Waves Ship Positions

Sunflower Gold

Last reported at 2016-Jul-30 12:15 UTC. Time now 2016-Jul-30 18:46 UTC.
Position N 34°36' E 134°53'.

Length 166 m; draft 5.8 m.

Type: Passenger vessel. MMSI: 431000331.

Date/timePositionNaut miles runAvg speedWind from/ knotsBaromVisibWave heightAir tempDewpointWater temp
2016-Jul-30 12:15N 34°36' E 134°53'1419.8
2016-Jul-30 11:33N 34°36' E 135°09'9 8.7
2016-Jul-30 10:33N 34°42' E 135°17'0 0.0
2016-Jul-30 09:29N 34°42' E 135°17'0 0.0
2016-Jul-30 08:11N 34°42' E 135°17'0 0.0
2016-Jul-30 07:05N 34°42' E 135°17'0 0.0
2016-Jul-30 06:29N 34°42' E 135°17'0 0.0
2016-Jul-30 05:29N 34°42' E 135°17'0 0.0
2016-Jul-30 04:29N 34°42' E 135°17'0 0.0
2016-Jul-30 03:29N 34°42' E 135°17'0 0.0
2016-Jul-30 02:11N 34°42' E 135°17'0 0.0
2016-Jul-30 01:29N 34°42' E 135°17'0 0.0
2016-Jul-30 00:29N 34°42' E 135°17'0 0.0
2016-Jul-29 23:29N 34°42' E 135°17'1 1.6
2016-Jul-29 22:34N 34°41' E 135°18'1514.8
2016-Jul-29 21:33N 34°37' E 135°01'7 0.2
2016-Jul-28 11:22N 34°35' E 134°52'1619.2
2016-Jul-28 10:33N 34°37' E 135°11'7 6.8
2016-Jul-28 09:30N 34°42' E 135°17'0 0.0
2016-Jul-28 08:18N 34°42' E 135°17'0 0.0
2016-Jul-28 07:30N 34°42' E 135°17'0 0.0
2016-Jul-28 06:24N 34°42' E 135°17'0 0.0
2016-Jul-28 05:30N 34°42' E 135°17'0 0.0
2016-Jul-28 04:18N 34°42' E 135°17'0 0.0
2016-Jul-28 03:30N 34°42' E 135°17'0 0.0
2016-Jul-28 02:30N 34°42' E 135°17'0 0.0
2016-Jul-28 01:30N 34°42' E 135°17'0 0.0
2016-Jul-28 00:30N 34°42' E 135°17'0 0.0
2016-Jul-27 23:30N 34°42' E 135°17'0 0.0
2016-Jul-27 22:30N 34°42' E 135°17'0 0.0
2016-Jul-27 21:33N 34°42' E 135°17'1312.8
2016-Jul-27 20:33N 34°35' E 135°04'8 0.3
2016-Jul-26 11:26N 34°36' E 134°54'1517.1
2016-Jul-26 10:33N 34°36' E 135°12'7 6.5
2016-Jul-26 09:30N 34°42' E 135°17'0 0.0
2016-Jul-26 08:30N 34°42' E 135°17'0 0.0
2016-Jul-26 07:24N 34°42' E 135°17'0 0.0
2016-Jul-26 06:30N 34°42' E 135°17'0 0.0
2016-Jul-26 05:30N 34°42' E 135°17'0 0.0
2016-Jul-26 04:30N 34°42' E 135°17'0 0.0
2016-Jul-26 03:30N 34°42' E 135°17'0 0.0
2016-Jul-26 02:30N 34°42' E 135°17'0 0.0
2016-Jul-26 01:30N 34°42' E 135°17'0 0.0
2016-Jul-26 00:30N 34°42' E 135°17'0 0.0
2016-Jul-25 23:30N 34°42' E 135°17'0 0.0
2016-Jul-25 22:24N 34°42' E 135°17'0 0.0
2016-Jul-25 21:32N 34°42' E 135°17'1111.2
2016-Jul-25 20:33N 34°35' E 135°07'14 0.4
2016-Jul-24 11:29N 34°34' E 134°49'1819.2
2016-Jul-24 10:33N 34°36' E 135°11'7 7.3
2016-Jul-24 09:33N 34°42' E 135°17'0 0.0
2016-Jul-24 08:33N 34°42' E 135°17'0 0.0
2016-Jul-24 07:27N 34°42' E 135°17'0 0.0
2016-Jul-24 06:33N 34°42' E 135°17'0 0.0
2016-Jul-24 05:33N 34°42' E 135°17'0 0.0
2016-Jul-24 03:33N 34°42' E 135°17'0 0.0
2016-Jul-24 02:33N 34°42' E 135°17'0 0.0
2016-Jul-24 01:33N 34°42' E 135°17'0 0.0
2016-Jul-24 00:33N 34°42' E 135°17'0 0.0
2016-Jul-23 23:33N 34°42' E 135°17'2 1.9
2016-Jul-23 22:33N 34°40' E 135°18'1414.0
2016-Jul-23 21:33N 34°36' E 135°02'5 0.1
2016-Jul-22 11:33N 34°36' E 135°08'9 9.4
2016-Jul-22 10:33N 34°42' E 135°17'0 0.0
2016-Jul-22 09:25N 34°42' E 135°17'0 0.0
2016-Jul-22 08:31N 34°42' E 135°17'0 0.0
2016-Jul-22 07:31N 34°42' E 135°17'0 0.0
2016-Jul-22 04:31N 34°42' E 135°17'0 0.0
2016-Jul-22 03:31N 34°42' E 135°17'0 0.0
2016-Jul-22 02:31N 34°42' E 135°17'0 0.0
2016-Jul-22 01:31N 34°42' E 135°17'0 0.0
2016-Jul-22 00:25N 34°42' E 135°17'0 0.0
2016-Jul-21 23:31N 34°42' E 135°17'0 0.0
2016-Jul-21 22:31N 34°42' E 135°17'0 0.0
2016-Jul-21 21:33N 34°42' E 135°17'1111.4
2016-Jul-21 20:33N 34°35' E 135°06'  

Dump ship's entire track history